Lihue, HI

4:27 AM HST on October 01, 2014 (GMT -1000)
Lihue | Change Station
CLOSE
Current Station
Airport
Location: Lihue,
Elevation: 102 ft
Nearby Weather Stations
Active Advisory: High Surf Advisory Active Notice: Record Report

Elev 102 ft 21.98 °N, 159.34 °W | Updated 34 minutes ago

Clear
Clear
74 °F
Feels Like 74 °F
N
8
Wind Variable Wind from West

Today
High -- | Low -- °F
--% Chance of Precip.
Yesterday
High -- | Low -- °F
Precip. -- in
6:28 AM 6:24 PM
Waxing Crescent, 48% visible
Pressure 29.91 in
Visibility 10.0 miles
Clouds Clear
Dew Point 70 °F
Humidity 87%
Rainfall 0.00 in
Snow Depth Not available.
UV 0 out of 12
Pollen Not available.
Air Quality Not available.
Flu Activity Not available.
METAR PHLI 011353Z 28007KT 10SM CLR 23/21 A2991 RMK AO2 SLP126 T02330211 $

More Conditions Fewer Conditions

Pressure 29.91 in
Visibility 10.0 miles
Clouds Clear
Dew Point 70 °F
Humidity 87%
Rainfall 0.00 in
Snow Depth Not available.
UV 0 out of 12
Pollen Not available.
Air Quality Not available.
Flu Activity Not available.
METAR PHLI 011353Z 28007KT 10SM CLR 23/21 A2991 RMK AO2 SLP126 T02330211 $

More Conditions Fewer Conditions

10-Day Weather Forecast

Almanac

Astronomy

Oct. 01, 2014 Rise Set
Actual Time 6:28 AM HST 6:24 PM HST
Civil Twilight 6:06 AM HST 6:47 PM HST
Nautical Twilight 5:40 AM HST 7:13 PM HST
Astronomical Twilight 5:14 AM HST 7:38 PM HST
Moon 1:10 PM HST No Moon Set
Length of Visible Light 12h 40m
Length of Day
11h 55m
Tomorrow will be 1m 16s shorter.
Waxing Crescent, 48% of the Moon is Illuminated
Today
Waxing Crescent
Oct 1
First Quarter
Oct 8
Full
Oct 15
Last Quarter
Oct 23
New

Today's Extremes

State Highs State Lows

Community

WunderPhotos

Upload Photos

1,757,956 photos uploaded!

Nearby

Snow Depth

Station Depth Elevation
No new snow has been reported.

Earthquake Activity

City Distance Mag. Time & Date
No recent earthquake activity has been reported nearby.
Minimum magnitude displayed is 2.5.

Coastal Water Temperatures

Place Temperature
No Stations Reporting

Nearby Weather Stations